Accueil
METAR-TAF:

METAR-TAF

Aéroports :

Port Heiden, Alaska, États-Unis

latitude: 56-57N, longitude: 158-38W, altitude: 29 m

Observation

Le bulletin a été fait il y a 13 minutes, à 22:56 UTC
Vent 7 kt de est/nord-est
Température -9°C
Humidité 79%
Pression 1012 hPa
Visibilité: 16.1 km
Ciel clair

METAR: PAPH 222256Z AUTO 06007KT 10SM CLR M09/M12 A2988 RMK AO2 SLP118 T10891122 FZRANO

Heure: 14:09 (23:09 UTC)


TAF: absent

Observations et prévisions météorologiques de plus de 4000 aéroports (messages METAR et TAF).

Les stations disponibles sont représentées par des disques jaunes et rouges sur la carte.

Passer la souris dessus pour voir le nom de la station.

Cliquer dessus pour voir les observations et prévisions météorologiques.

Pour changer de carte: cliquez sur les boutons verts avec une croix noire pour zoomer, sur le bouton vert avec un tiret pour effectuer un zoom arrière, ou sur les flèches vertes pour les cartes adjacentes.


METAR-TAF: